createdAt,value
2023-01-11T00:00:45.579Z,6.35
2023-01-11T00:03:12.361Z,7.50
2023-01-11T00:05:42.929Z,5.25
2023-01-11T00:08:13.068Z,4.20
2023-01-11T00:10:39.985Z,7.65
2023-01-11T00:13:07.373Z,6.10
2023-01-11T00:15:36.153Z,6.90
2023-01-11T00:18:03.023Z,9.07
2023-01-11T00:20:29.575Z,5.10
2023-01-11T00:22:58.949Z,9.65
2023-01-11T00:25:25.493Z,6.82
2023-01-11T00:27:52.191Z,3.90
2023-01-11T00:30:19.043Z,7.75
2023-01-11T00:32:45.872Z,5.35
2023-01-11T00:35:12.930Z,7.43
2023-01-11T00:37:42.265Z,4.82
2023-01-11T00:40:09.604Z,3.72
2023-01-11T00:42:54.666Z,6.25
2023-01-11T00:45:39.598Z,5.25
2023-01-11T00:48:07.038Z,4.68
2023-01-11T00:50:35.930Z,6.65
2023-01-11T00:53:03.421Z,4.90
2023-01-11T00:55:31.929Z,5.40
2023-01-11T00:57:59.189Z,7.35
2023-01-11T01:00:26.440Z,6.60
2023-01-11T01:02:53.284Z,4.65
2023-01-11T01:05:20.133Z,6.32
2023-01-11T01:07:46.707Z,5.22
2023-01-11T01:10:16.456Z,4.07
2023-01-11T01:13:03.455Z,5.82
2023-01-11T01:15:30.208Z,4.30
2023-01-11T01:17:56.987Z,5.78
2023-01-11T01:20:24.315Z,6.55
2023-01-11T01:22:50.887Z,4.60
2023-01-11T01:25:21.200Z,3.97
2023-01-11T01:27:47.787Z,4.22
2023-01-11T01:30:14.437Z,4.10
2023-01-11T01:32:41.118Z,3.58
2023-01-11T01:35:08.150Z,7.30
2023-01-11T01:37:34.641Z,5.20
2023-01-11T01:40:01.144Z,6.75
2023-01-11T01:42:27.879Z,5.82
2023-01-11T01:45:06.188Z,5.13
2023-01-11T01:47:39.317Z,3.92
2023-01-11T01:50:23.118Z,3.25
2023-01-11T01:52:53.012Z,6.00
2023-01-11T01:55:26.822Z,4.10
2023-01-11T01:57:55.229Z,4.32
2023-01-11T02:00:21.950Z,5.10
2023-01-11T02:02:49.372Z,2.90
2023-01-11T02:05:17.441Z,4.15
2023-01-11T02:07:46.234Z,2.70
2023-01-11T02:10:16.546Z,5.40
2023-01-11T02:12:55.715Z,5.03
2023-01-11T02:15:23.103Z,6.63
2023-01-11T02:17:49.628Z,2.05
2023-01-11T02:20:30.986Z,2.72
2023-01-11T02:23:19.715Z,2.10
2023-01-11T02:26:04.132Z,2.65
2023-01-11T02:28:33.561Z,3.33
2023-01-11T02:31:11.615Z,3.92
2023-01-11T02:34:05.804Z,3.30
2023-01-11T02:36:44.542Z,3.92
2023-01-11T02:39:25.009Z,4.32
2023-01-11T02:42:23.678Z,3.25
2023-01-11T02:45:02.931Z,5.40
2023-01-11T02:47:50.642Z,7.15
2023-01-11T02:50:29.939Z,2.35
2023-01-11T02:53:27.793Z,2.30
2023-01-11T02:55:58.811Z,2.20
2023-01-11T02:58:29.767Z,2.40
2023-01-11T03:00:58.591Z,4.82
2023-01-11T03:03:29.466Z,3.15
2023-01-11T03:06:03.750Z,5.97
2023-01-11T03:08:44.526Z,4.85
2023-01-11T03:11:42.853Z,2.45
2023-01-11T03:14:26.957Z,2.97
2023-01-11T03:17:22.027Z,4.72
2023-01-11T03:20:03.949Z,3.75
2023-01-11T03:23:04.109Z,4.15
2023-01-11T03:25:40.611Z,4.00
2023-01-11T03:28:22.128Z,3.35
2023-01-11T03:31:11.579Z,3.10
2023-01-11T03:33:41.311Z,4.60
2023-01-11T03:36:18.764Z,3.58
2023-01-11T03:38:49.310Z,2.95
2023-01-11T03:41:21.385Z,2.97
2023-01-11T03:43:51.836Z,2.50
2023-01-11T03:46:27.400Z,2.90
2023-01-11T03:48:59.486Z,3.72
2023-01-11T03:51:28.410Z,4.32
2023-01-11T03:53:59.701Z,4.57
2023-01-11T03:56:38.397Z,5.57
2023-01-11T03:59:05.122Z,3.42
2023-01-11T04:01:31.952Z,4.80
2023-01-11T04:03:58.587Z,3.17
2023-01-11T04:06:25.729Z,4.97
2023-01-11T04:08:52.234Z,3.20
2023-01-11T04:11:18.795Z,3.33
2023-01-11T04:13:45.231Z,4.25
2023-01-11T04:16:11.776Z,5.70
2023-01-11T04:18:38.277Z,4.75
2023-01-11T04:21:04.986Z,3.20
2023-01-11T04:23:31.435Z,2.90
2023-01-11T04:25:57.893Z,4.00
2023-01-11T04:28:24.331Z,2.53
2023-01-11T04:30:50.799Z,3.45
2023-01-11T04:33:18.819Z,4.72
2023-01-11T04:35:45.579Z,4.03
2023-01-11T04:38:12.160Z,3.38
2023-01-11T04:40:38.802Z,2.33
2023-01-11T04:43:05.258Z,3.92
2023-01-11T04:45:31.762Z,5.03
2023-01-11T04:47:58.603Z,3.22
2023-01-11T04:50:26.395Z,3.45
2023-01-11T04:52:53.595Z,2.10
2023-01-11T04:55:20.609Z,3.15
2023-01-11T04:57:47.382Z,2.35
2023-01-11T05:00:15.827Z,3.92
2023-01-11T05:02:42.368Z,2.03
2023-01-11T05:05:10.633Z,3.28
2023-01-11T05:07:38.856Z,3.70
2023-01-11T05:10:06.089Z,3.88
2023-01-11T05:12:32.637Z,3.97
2023-01-11T05:14:59.203Z,1.45
2023-01-11T05:17:25.671Z,4.68
2023-01-11T05:19:52.172Z,3.60
2023-01-11T05:22:18.617Z,2.83
2023-01-11T05:24:45.116Z,3.45
2023-01-11T05:27:11.665Z,3.28
2023-01-11T05:29:38.196Z,2.47
2023-01-11T05:32:05.001Z,1.77
2023-01-11T05:34:31.491Z,1.65
2023-01-11T05:36:57.966Z,1.13
2023-01-11T05:39:24.633Z,1.95
2023-01-11T05:41:51.103Z,1.58
2023-01-11T05:44:36.430Z,1.23
2023-01-11T05:47:04.185Z,1.23
2023-01-11T05:49:30.836Z,2.72
2023-01-11T05:51:57.427Z,1.35
2023-01-11T05:54:23.938Z,1.33
2023-01-11T05:56:50.410Z,3.58
2023-01-11T05:59:16.953Z,1.35
2023-01-11T06:01:44.314Z,1.33
2023-01-11T06:04:17.204Z,1.15
2023-01-11T06:06:43.682Z,1.30
2023-01-11T06:09:10.289Z,1.20
2023-01-11T06:11:36.763Z,1.42
2023-01-11T06:14:03.249Z,1.08
2023-01-11T06:16:29.812Z,2.33
2023-01-11T06:18:56.314Z,1.50
2023-01-11T06:21:22.959Z,1.40
2023-01-11T06:23:53.862Z,1.65
2023-01-11T06:26:21.971Z,0.80
2023-01-11T06:28:49.398Z,1.17
2023-01-11T06:31:17.689Z,1.15
2023-01-11T06:33:45.348Z,0.80
2023-01-11T06:36:13.350Z,1.38
2023-01-11T06:38:40.413Z,1.10
2023-01-11T06:41:11.238Z,0.73
2023-01-11T06:43:41.006Z,1.58
2023-01-11T06:46:13.866Z,1.55
2023-01-11T06:48:40.437Z,0.80
2023-01-11T06:51:07.002Z,1.30
2023-01-11T06:53:33.477Z,2.22
2023-01-11T06:56:00.079Z,0.70
2023-01-11T06:58:27.024Z,1.00
2023-01-11T07:00:55.341Z,1.90
2023-01-11T07:03:24.121Z,1.67
2023-01-11T07:05:52.095Z,1.02
2023-01-11T07:08:19.242Z,1.02
2023-01-11T07:10:45.785Z,1.15
2023-01-11T07:13:12.509Z,2.60
2023-01-11T07:15:39.333Z,1.52
2023-01-11T07:18:05.931Z,1.27
2023-01-11T07:20:32.457Z,2.35
2023-01-11T07:23:00.008Z,2.45
2023-01-11T07:25:30.151Z,1.30
2023-01-11T07:28:01.115Z,1.63
2023-01-11T07:30:30.007Z,2.60
2023-01-11T07:33:00.814Z,1.23
2023-01-11T07:35:29.115Z,3.30
2023-01-11T07:37:55.603Z,1.13
2023-01-11T07:40:22.266Z,1.20
2023-01-11T07:43:11.571Z,1.10
2023-01-11T07:45:45.828Z,1.23
2023-01-11T07:48:13.141Z,1.30
2023-01-11T07:50:44.198Z,1.20
2023-01-11T07:53:11.402Z,0.65
2023-01-11T07:55:39.648Z,1.33
2023-01-11T07:58:07.663Z,1.90
2023-01-11T08:00:37.474Z,1.23
2023-01-11T08:03:04.176Z,1.13
2023-01-11T08:05:30.724Z,0.85
2023-01-11T08:07:57.900Z,1.15
2023-01-11T08:10:24.446Z,0.90
2023-01-11T08:13:09.778Z,0.70
2023-01-11T08:15:36.677Z,1.05
2023-01-11T08:18:06.678Z,1.67
2023-01-11T08:20:33.735Z,1.33
2023-01-11T08:23:05.596Z,0.90
2023-01-11T08:25:33.193Z,1.15
2023-01-11T08:28:04.199Z,0.70
2023-01-11T08:30:30.685Z,0.60
2023-01-11T08:32:57.747Z,0.82
2023-01-11T08:35:25.770Z,0.90
2023-01-11T08:37:52.382Z,0.85
2023-01-11T08:40:19.089Z,3.03
2023-01-11T08:42:45.554Z,0.90
2023-01-11T08:45:13.218Z,1.65
2023-01-11T08:47:39.714Z,0.80
2023-01-11T08:50:08.242Z,1.10
2023-01-11T08:52:37.494Z,0.98
2023-01-11T08:55:07.621Z,0.70
2023-01-11T08:57:35.130Z,0.65
2023-01-11T09:00:01.763Z,0.70
2023-01-11T09:02:28.276Z,1.45
2023-01-11T09:04:54.793Z,0.80
2023-01-11T09:07:21.280Z,1.02
2023-01-11T09:09:47.756Z,1.20
2023-01-11T09:12:14.540Z,0.93
2023-01-11T09:14:41.828Z,0.82
2023-01-11T09:17:08.408Z,1.55
2023-01-11T09:19:34.862Z,0.60
2023-01-11T09:22:03.145Z,1.08
2023-01-11T09:24:30.206Z,0.70
2023-01-11T09:27:00.414Z,2.17
2023-01-11T09:29:26.989Z,0.77
2023-01-11T09:31:53.575Z,1.10
2023-01-11T09:34:20.986Z,0.70
2023-01-11T09:36:49.016Z,1.40
2023-01-11T09:39:18.765Z,1.05
2023-01-11T09:42:17.811Z,2.03
2023-01-11T09:45:05.207Z,0.80
2023-01-11T09:47:44.491Z,1.13
2023-01-11T09:50:23.542Z,1.10
2023-01-11T09:52:54.609Z,0.80
2023-01-11T09:55:32.902Z,1.00
2023-01-11T09:58:36.611Z,0.82
2023-01-11T10:01:19.968Z,0.82
2023-01-11T10:03:53.142Z,1.17
2023-01-11T10:06:56.051Z,1.10
2023-01-11T10:18:39.330Z,0.77
2023-01-11T10:22:15.682Z,0.77
2023-01-11T10:25:01.659Z,0.88
2023-01-11T10:27:39.179Z,1.15
2023-01-11T10:30:51.606Z,0.60
2023-01-11T10:33:46.485Z,0.60
2023-01-11T10:36:39.619Z,0.60
2023-01-11T10:39:41.833Z,2.53
2023-01-11T10:42:15.570Z,0.60
2023-01-11T10:44:52.567Z,0.75
2023-01-11T10:47:23.769Z,0.60
2023-01-11T10:50:35.012Z,1.05
2023-01-11T10:53:07.296Z,0.95
2023-01-11T10:55:47.136Z,0.85
2023-01-11T10:59:05.516Z,0.60
2023-01-11T11:01:40.956Z,0.57
2023-01-11T11:04:27.781Z,0.80
2023-01-11T11:07:17.821Z,1.85
2023-01-11T11:10:02.396Z,1.10
2023-01-11T11:12:32.594Z,0.98
2023-01-11T11:15:18.800Z,0.60
2023-01-11T11:17:52.197Z,0.95
2023-01-11T11:20:24.544Z,0.73
2023-01-11T11:22:53.038Z,0.70
2023-01-11T11:25:29.620Z,1.60
2023-01-11T11:27:58.333Z,1.55
2023-01-11T11:30:45.834Z,0.73
2023-01-11T11:33:38.943Z,1.13
2023-01-11T11:36:08.851Z,1.63
2023-01-11T11:38:37.808Z,1.08
2023-01-11T11:41:06.389Z,1.00
2023-01-11T11:43:41.369Z,1.08
2023-01-11T11:46:18.889Z,1.73
2023-01-11T11:49:15.326Z,1.27
2023-01-11T11:51:44.088Z,0.70
2023-01-11T11:54:40.966Z,0.80
2023-01-11T11:57:21.177Z,0.93
2023-01-11T11:59:49.759Z,0.82
2023-01-11T12:02:30.393Z,1.75
2023-01-11T12:04:59.669Z,0.70
2023-01-11T12:07:34.416Z,1.80
2023-01-11T12:10:07.101Z,1.20
2023-01-11T12:12:36.357Z,1.00
2023-01-11T12:15:05.780Z,0.98
2023-01-11T12:17:32.342Z,3.03
2023-01-11T12:19:58.833Z,1.95
2023-01-11T12:22:30.680Z,1.65
2023-01-11T12:25:15.850Z,2.22
2023-01-11T12:28:11.698Z,1.88
2023-01-11T12:31:16.982Z,2.50
2023-01-11T12:34:11.475Z,1.17
2023-01-11T12:36:44.229Z,1.73
2023-01-11T12:39:51.910Z,1.55
2023-01-11T12:42:42.206Z,2.22
2023-01-11T12:45:40.325Z,1.20
2023-01-11T12:48:31.555Z,2.40
2023-01-11T12:51:13.333Z,1.40
2023-01-11T12:53:55.781Z,1.60
2023-01-11T12:56:43.942Z,1.30
2023-01-11T12:59:40.289Z,1.52
2023-01-11T13:02:15.729Z,4.00
2023-01-11T13:05:01.433Z,1.52
2023-01-11T13:07:41.465Z,1.40
2023-01-11T13:10:23.861Z,1.30
2023-01-11T13:13:07.226Z,1.60
2023-01-11T13:15:48.903Z,3.10
2023-01-11T13:18:27.402Z,2.85
2023-01-11T13:21:02.524Z,2.40
2023-01-11T13:23:39.162Z,2.75
2023-01-11T13:26:20.364Z,3.40
2023-01-11T13:28:54.804Z,3.63
2023-01-11T13:31:23.068Z,2.42
2023-01-11T13:33:57.500Z,2.20
2023-01-11T13:36:36.400Z,3.08
2023-01-11T13:39:28.556Z,4.68
2023-01-11T13:42:05.544Z,4.97
2023-01-11T13:44:37.315Z,5.93
2023-01-11T13:47:37.452Z,3.83
2023-01-11T13:50:12.451Z,5.20
2023-01-11T13:53:09.700Z,2.65
2023-01-11T13:56:10.112Z,5.47
2023-01-11T13:59:12.096Z,5.38
2023-01-11T14:01:53.755Z,3.70
2023-01-11T14:04:46.551Z,4.35
2023-01-11T14:07:44.561Z,8.32
2023-01-11T14:10:26.253Z,6.03
2023-01-11T14:13:07.603Z,7.47
2023-01-11T14:15:52.865Z,10.18
2023-01-11T14:18:28.527Z,6.30
2023-01-11T14:21:05.962Z,7.15
2023-01-11T14:23:55.023Z,7.40
2023-01-11T14:26:55.322Z,7.55
2023-01-11T14:29:43.687Z,7.00
2023-01-11T14:32:28.538Z,8.68
2023-01-11T14:35:32.783Z,6.82
2023-01-11T14:38:02.268Z,6.30
2023-01-11T14:40:44.743Z,11.55
2023-01-11T14:43:30.069Z,8.35
2023-01-11T14:46:24.420Z,8.80
2023-01-11T14:49:06.433Z,9.10
2023-01-11T14:51:51.477Z,9.07
2023-01-11T14:54:40.130Z,10.88
2023-01-11T14:57:06.675Z,10.05
2023-01-11T14:59:40.317Z,8.93
2023-01-11T15:02:14.143Z,8.30
2023-01-11T15:04:53.676Z,14.73
2023-01-11T15:07:28.983Z,10.45
2023-01-11T15:09:57.938Z,7.40
2023-01-11T15:12:39.105Z,13.15
2023-01-11T15:15:07.664Z,9.23
2023-01-11T15:17:53.172Z,9.95
2023-01-11T15:20:21.826Z,14.20
2023-01-11T15:22:57.800Z,12.43
2023-01-11T15:25:27.312Z,15.30
2023-01-11T15:27:55.191Z,13.30
2023-01-11T15:30:30.841Z,15.95
2023-01-11T15:33:19.599Z,20.23
2023-01-11T15:35:55.495Z,13.68
2023-01-11T15:38:28.112Z,13.60
2023-01-11T15:41:18.435Z,14.60
2023-01-11T15:43:59.407Z,16.33
2023-01-11T15:46:56.170Z,15.32
2023-01-11T15:49:58.762Z,21.52
2023-01-11T15:52:52.901Z,21.65
2023-01-11T15:55:28.640Z,16.73
2023-01-11T15:57:58.016Z,15.30
2023-01-11T16:00:40.259Z,14.98
2023-01-11T16:03:22.300Z,17.30
2023-01-11T16:06:01.824Z,16.98
2023-01-11T16:08:37.240Z,24.02
2023-01-11T16:11:31.725Z,16.60
2023-01-11T16:14:05.630Z,17.15
2023-01-11T16:16:40.132Z,17.10
2023-01-11T16:19:21.672Z,20.48
2023-01-11T16:21:55.630Z,19.15
2023-01-11T16:24:26.850Z,21.67
2023-01-11T16:26:56.679Z,26.67
2023-01-11T16:29:26.423Z,19.17
2023-01-11T16:31:56.027Z,20.05
2023-01-11T16:34:22.807Z,20.65
2023-01-11T16:36:49.523Z,16.90
2023-01-11T16:39:29.225Z,20.92
2023-01-11T16:42:05.881Z,24.55
2023-01-11T16:44:45.591Z,16.17
2023-01-11T16:47:18.674Z,21.33
2023-01-11T16:49:52.190Z,17.30
2023-01-11T16:52:27.841Z,24.42
2023-01-11T16:54:56.190Z,21.38
2023-01-11T16:57:30.178Z,20.70
2023-01-11T17:00:01.790Z,20.88
2023-01-11T17:02:38.822Z,16.25
2023-01-11T17:05:31.741Z,18.02
2023-01-11T17:07:58.244Z,19.67
2023-01-11T17:10:31.052Z,19.33
2023-01-11T17:13:29.393Z,19.25
2023-01-11T17:16:08.363Z,22.25
2023-01-11T17:18:38.999Z,22.48
2023-01-11T17:21:16.930Z,24.92
2023-01-11T17:23:45.311Z,22.02
2023-01-11T17:26:22.786Z,19.98
2023-01-11T17:28:55.886Z,25.02
2023-01-11T17:31:29.596Z,17.85
2023-01-11T17:34:08.320Z,16.50
2023-01-11T17:36:36.114Z,22.75
2023-01-11T17:39:03.995Z,17.25
2023-01-11T17:41:49.995Z,17.98
2023-01-11T17:44:38.084Z,20.40
2023-01-11T17:47:07.999Z,19.17
2023-01-11T17:49:36.060Z,15.52
2023-01-11T17:52:10.851Z,19.20
2023-01-11T17:54:37.433Z,20.33
2023-01-11T17:57:03.900Z,21.02
2023-01-11T17:59:31.439Z,21.05
2023-01-11T18:02:02.827Z,22.17
2023-01-11T18:04:30.695Z,18.42
2023-01-11T18:07:08.196Z,22.58
2023-01-11T18:09:40.260Z,25.02
2023-01-11T18:12:31.897Z,26.60
2023-01-11T18:15:00.867Z,28.25
2023-01-11T18:17:36.454Z,20.27
2023-01-11T18:20:22.832Z,28.23
2023-01-11T18:23:05.065Z,19.20
2023-01-11T18:25:34.972Z,23.13
2023-01-11T18:28:26.350Z,19.90
2023-01-11T18:30:55.075Z,22.30
2023-01-11T18:33:25.335Z,25.13
2023-01-11T18:35:54.329Z,21.65
2023-01-11T18:38:28.779Z,23.40
2023-01-11T18:40:57.047Z,23.75
2023-01-11T18:43:29.213Z,18.50
2023-01-11T18:45:56.185Z,19.90
2023-01-11T18:48:23.538Z,21.85
2023-01-11T18:50:52.069Z,19.10
2023-01-11T18:53:18.696Z,22.52
2023-01-11T18:55:49.457Z,25.58
2023-01-11T18:58:16.018Z,19.83
2023-01-11T19:00:43.048Z,18.23
2023-01-11T19:03:11.607Z,17.58
2023-01-11T19:05:44.248Z,19.35
2023-01-11T19:08:13.684Z,22.45
2023-01-11T19:10:40.114Z,19.20
2023-01-11T19:13:06.633Z,19.58
2023-01-11T19:15:35.821Z,16.33
2023-01-11T19:18:05.393Z,21.10
2023-01-11T19:23:03.552Z,19.40
2023-01-11T19:25:30.001Z,22.45
2023-01-11T19:27:56.519Z,14.32
2023-01-11T19:30:22.957Z,16.25
2023-01-11T19:32:53.441Z,15.20
2023-01-11T19:35:20.712Z,14.45
2023-01-11T19:37:47.232Z,15.70
2023-01-11T19:40:13.784Z,21.50
2023-01-11T19:42:40.312Z,16.40
2023-01-11T19:45:07.704Z,20.75
2023-01-11T19:47:34.282Z,19.30
2023-01-11T19:50:01.198Z,18.35
2023-01-11T19:52:27.897Z,20.25
2023-01-11T19:54:55.168Z,18.20
2023-01-11T19:57:21.724Z,14.38
2023-01-11T19:59:49.717Z,18.08
2023-01-11T20:02:18.763Z,19.42
2023-01-11T20:04:45.490Z,18.77
2023-01-11T20:07:13.097Z,24.85
2023-01-11T20:09:39.817Z,17.70
2023-01-11T20:12:08.219Z,19.88
2023-01-11T20:14:35.482Z,21.17
2023-01-11T20:17:02.463Z,16.02
2023-01-11T20:19:31.837Z,16.60
2023-01-11T20:21:58.326Z,16.63
2023-01-11T20:24:30.726Z,20.95
2023-01-11T20:27:03.361Z,21.45
2023-01-11T20:29:30.319Z,19.95
2023-01-11T20:32:21.134Z,20.30
2023-01-11T20:34:46.973Z,20.33
2023-01-11T20:37:14.990Z,23.15
2023-01-11T20:39:41.521Z,19.52
2023-01-11T20:42:08.823Z,21.42
2023-01-11T20:44:35.313Z,18.88
2023-01-11T20:47:01.874Z,22.50
2023-01-11T20:49:29.246Z,26.20
2023-01-11T20:51:57.130Z,21.58
2023-01-11T20:54:23.625Z,19.15
2023-01-11T20:56:50.151Z,24.48
2023-01-11T20:59:19.914Z,18.23
2023-01-11T21:01:47.692Z,20.95
2023-01-11T21:04:14.655Z,18.98
2023-01-11T21:06:43.441Z,21.17
2023-01-11T21:09:10.761Z,15.43
2023-01-11T21:14:04.900Z,17.30
2023-01-11T21:16:31.791Z,17.35
2023-01-11T21:19:01.526Z,23.10
2023-01-11T21:21:30.335Z,17.00
2023-01-11T21:24:02.115Z,19.70
2023-01-11T21:26:29.563Z,15.00
2023-01-11T21:29:01.381Z,17.52
2023-01-11T21:31:30.742Z,20.55
2023-01-11T21:34:02.911Z,19.35
2023-01-11T21:36:32.993Z,18.35
2023-01-11T21:39:00.180Z,17.27
2023-01-11T21:41:48.301Z,22.98
2023-01-11T21:44:15.860Z,16.63
2023-01-11T21:46:43.114Z,22.15
2023-01-11T21:49:10.672Z,16.80
2023-01-11T21:51:37.342Z,16.92
2023-01-11T21:54:12.502Z,13.40
2023-01-11T21:56:39.292Z,17.80
2023-01-11T21:59:05.777Z,19.02
2023-01-11T22:01:32.236Z,15.25
2023-01-11T22:03:59.594Z,13.18
2023-01-11T22:06:26.104Z,17.55
2023-01-11T22:08:52.890Z,16.05
2023-01-11T22:11:19.398Z,18.92
2023-01-11T22:13:45.945Z,19.17
2023-01-11T22:16:15.862Z,17.80
2023-01-11T22:18:43.377Z,16.20
2023-01-11T22:21:18.753Z,19.33
2023-01-11T22:23:47.548Z,15.90
2023-01-11T22:26:18.142Z,15.65
2023-01-11T22:29:04.990Z,18.67
2023-01-11T22:31:32.733Z,16.88
2023-01-11T22:34:00.580Z,16.65
2023-01-11T22:36:31.019Z,12.82
2023-01-11T22:39:01.053Z,17.63
2023-01-11T22:41:27.556Z,15.07
2023-01-11T22:43:55.299Z,15.93
2023-01-11T22:46:23.998Z,13.23
2023-01-11T22:48:51.195Z,16.85
2023-01-11T22:51:19.996Z,16.30
2023-01-11T22:53:49.367Z,19.67
2023-01-11T22:56:20.790Z,16.05
2023-01-11T22:58:47.922Z,16.23
2023-01-11T23:01:29.131Z,14.13
2023-01-11T23:03:59.875Z,14.27
2023-01-11T23:06:44.316Z,14.13
2023-01-11T23:09:16.833Z,16.15
2023-01-11T23:12:03.462Z,17.98
2023-01-11T23:14:34.604Z,15.40
2023-01-11T23:17:13.173Z,15.70
2023-01-11T23:19:47.136Z,10.50
2023-01-11T23:22:15.693Z,15.05
2023-01-11T23:24:42.231Z,15.95
2023-01-11T23:27:08.731Z,15.32
2023-01-11T23:29:35.657Z,12.27
2023-01-11T23:32:02.193Z,14.07
2023-01-11T23:34:28.836Z,16.55
2023-01-11T23:36:58.539Z,15.02
2023-01-11T23:39:25.062Z,11.25
2023-01-11T23:42:09.897Z,14.18
2023-01-11T23:44:36.408Z,15.57
2023-01-11T23:47:21.050Z,10.80
2023-01-11T23:49:49.513Z,21.88
2023-01-11T23:52:17.249Z,13.10
2023-01-11T23:54:45.559Z,10.60
2023-01-11T23:57:14.024Z,12.68
2023-01-11T23:59:42.672Z,9.63
